Relevés horaires Schaffen (Belgique)


Relevés horaires à Schaffen - Mardi 28 Avr. 2026
Heure UTC1 Température [°C] Vent [km/h] Hum. [%] Pres.4 [hPa] Visi. [Km] Nébu. [octa] Préc.5 [mm] Cond.
2m. Res. Ros. Dir.2 Vit. Moy. Raf.3
23:00 12.5 12.1 -1.1 ENE 7.4 -- 16.7 39 1022.2(1.0/3h) >70 -- -- --
22:00 13.3 13 -0.4 ENE 7.4 -- 16.7 39 1021.8(1.4/3h) >70 -- -- --
21:00 14.1 13.9 -0.2 ENE 7.4 -- 18.5 37 1021.6(1.7/3h) >70 -- -- --
20:00 15.3 15.3 -0.7 NE 7.4 -- 16.7 33 1021.1(1.6/3h) >70 -- -- --
19:00 16.2 16.2 -- NE 7.4 -- 18.5 -- 1020.3(1.1/3h) >70 -- -- --
18:00 17.9 17.9 -- NE 9.3 -- 22.2 -- 1019.7(0.4/3h) >70 -- -- --
17:00 19.1 19.1 1.4 ENE 11.1 -- 20.4 31 1019.3(0.0/3h) >70 -- -- --
16:00 20.0 20.0 1.6 ENE 9.3 -- 18.5 29 1019.1(-0.6/3h) >70 -- -- --
15:00 20.1 20.1 0.7 ENE 11.1 -- 22.2 27 1019.2(-0.7/3h) >70 -- -- --
14:00 20.0 20.0 1.6 NE 11.1 -- 18.5 29 1019.5(-0.9/3h) >70 -- -- --
13:00 19.4 19.4 1.4 NE 13.0 -- 20.4 30 1019.7(-1.0/3h) >70 -- -- --
12:00 19.5 19.5 2.1 E 9.3 -- 22.2 31 1020(-0.8/3h) >70 -- -- --
11:00 18.1 18.1 3.5 NE 9.3 -- 18.5 38 1020.3(-0.1/3h) >70 -- -- --
10:00 16.2 15.9 3.1 NE 11.1 -- 16.7 41 1020.7(0.0/3h) >70 -- -- --
09:00 14.4 14 3.0 NE 9.3 -- 14.8 46 1020.8(0.3/3h) 15 1/8 -- --
08:00 12.3 11.5 3.6 NNE 9.3 -- 13.0 55 1020.7(0.4/3h) 17 -- -- --
07:00 10.2 9.4 3.5 NE 7.4 -- 11.1 63 1020.7(0.6/3h) 16 -- -- --
06:00 8.6 8 3.4 NNE 5.6 -- 11.1 70 1020.7(0.1/3h) 40 -- -- --
05:00 7.5 6.7 2.8 NNE 5.6 -- 9.3 72 1020.3(-0.5/3h) 16 -- -- --
04:00 8.4 7.7 2.4 NE 5.6 -- 11.1 66 1020.2(-0.6/3h) >70 -- -- --
03:00 9.2 8.7 2.1 NE 5.6 -- 11.1 61 1020.5(-0.3/3h) >70 -- -- --
02:00 9.7 8.8 1.4 NNE 7.4 -- 11.1 56 1020.7(0.2/3h) >70 -- -- --
01:00 10.2 9.4 0.5 NNE 7.4 -- 11.1 51 1020.7(0.1/3h) >70 -- -- --
00:00 11.0 10.7 0.2 NNE 5.6 -- 11.1 47 1020.8(0.2/3h) >70 -- -- --

1 Coordinated Universal Time. Actuellement il est 02:00 locale et 00:00 UTC.

2 Le vent souffle depuis la direction indiquée vers la direction oposée.

3 Les rafales max. sont disponible 40 min après l'heure du relevé.

4 Pour les stations d'altitude (plus de 600m) le géopotentiel du niveau le plus proche de la pression obligatoire est indiqué.

5 Les stations disposant d'un diffuseur peuvent indiquer "trace". Cela signifie que des précipitations ont touchés le sol mais que la quantité est inférieure à 0.1 mm.

Récapitulatif de la journée
Température [°C] Vent [km/h] Ensoleillement4 [h] Precipitations totale5 [mm] Pression [Hpa]
Min1 Max.2 Moy.3 Max. Min Max.
7.4 20.4 0 22.2 0 h 0 min 0 1019.1 1022.2

1 Température minimale relevée entre 18:00 UTC la veille et 18:00 UTC le jour donné.

2 Température maximale relevée entre 06:00 UTC le jour donné et 06:00 UTC le lendemain.

3 Vent moyen de la journée basé sur les relevés horaires.

4 Ensoleillement en heures relevé entre 06:00 UTC la veille et 06:00 UTC le jour donné.

5 Précipitations totales tombées entre 06:00 UTC la jour donné et 06:00 UTC le lendemain.

Graphiques horaires